sensor_id;sensor_type;location;lat;lon;timestamp;temperature;humidity
31991;DHT22;18508;49.386;8.370;2023-08-07T00:02:40;13.90;1.00
31991;DHT22;18508;49.386;8.370;2023-08-07T00:05:16;13.90;1.00
31991;DHT22;18508;49.386;8.370;2023-08-07T00:07:46;13.90;1.00
31991;DHT22;18508;49.386;8.370;2023-08-07T00:10:21;13.90;1.00
31991;DHT22;18508;49.386;8.370;2023-08-07T00:12:53;13.90;1.00
31991;DHT22;18508;49.386;8.370;2023-08-07T00:15:21;13.80;1.00
31991;DHT22;18508;49.386;8.370;2023-08-07T00:20:20;13.90;1.00
31991;DHT22;18508;49.386;8.370;2023-08-07T00:22:50;13.90;1.00
31991;DHT22;18508;49.386;8.370;2023-08-07T00:25:19;13.90;1.00
31991;DHT22;18508;49.386;8.370;2023-08-07T00:27:47;13.90;1.00
31991;DHT22;18508;49.386;8.370;2023-08-07T00:30:15;13.90;1.00
31991;DHT22;18508;49.386;8.370;2023-08-07T00:32:44;13.90;1.00
31991;DHT22;18508;49.386;8.370;2023-08-07T00:35:12;13.90;1.00
31991;DHT22;18508;49.386;8.370;2023-08-07T00:37:40;13.90;1.00
31991;DHT22;18508;49.386;8.370;2023-08-07T00:40:11;13.90;1.00
31991;DHT22;18508;49.386;8.370;2023-08-07T00:42:39;13.90;1.00
31991;DHT22;18508;49.386;8.370;2023-08-07T00:45:11;13.90;1.00
31991;DHT22;18508;49.386;8.370;2023-08-07T00:47:39;13.90;1.00
31991;DHT22;18508;49.386;8.370;2023-08-07T00:50:08;13.80;1.00
31991;DHT22;18508;49.386;8.370;2023-08-07T00:57:36;13.80;1.00
31991;DHT22;18508;49.386;8.370;2023-08-07T01:00:06;13.70;1.00
31991;DHT22;18508;49.386;8.370;2023-08-07T01:02:35;13.80;1.00
31991;DHT22;18508;49.386;8.370;2023-08-07T01:05:06;13.80;1.00
31991;DHT22;18508;49.386;8.370;2023-08-07T01:07:40;13.50;1.00
31991;DHT22;18508;49.386;8.370;2023-08-07T01:10:09;13.70;1.00
31991;DHT22;18508;49.386;8.370;2023-08-07T01:12:45;13.70;1.00
31991;DHT22;18508;49.386;8.370;2023-08-07T01:15:18;13.70;1.00
31991;DHT22;18508;49.386;8.370;2023-08-07T01:17:48;13.70;1.00
31991;DHT22;18508;49.386;8.370;2023-08-07T01:20:18;13.70;1.00
31991;DHT22;18508;49.386;8.370;2023-08-07T01:22:47;13.70;1.00
31991;DHT22;18508;49.386;8.370;2023-08-07T01:25:17;13.70;1.00
31991;DHT22;18508;49.386;8.370;2023-08-07T01:27:52;13.10;1.00
31991;DHT22;18508;49.386;8.370;2023-08-07T01:30:28;13.70;1.00
31991;DHT22;18508;49.386;8.370;2023-08-07T01:33:05;13.70;1.00
31991;DHT22;18508;49.386;8.370;2023-08-07T01:35:41;13.70;1.00
31991;DHT22;18508;49.386;8.370;2023-08-07T01:38:12;13.60;1.00
31991;DHT22;18508;49.386;8.370;2023-08-07T01:40:42;13.60;1.00
31991;DHT22;18508;49.386;8.370;2023-08-07T01:43:11;13.60;1.00
31991;DHT22;18508;49.386;8.370;2023-08-07T01:45:39;13.30;1.00
31991;DHT22;18508;49.386;8.370;2023-08-07T01:48:07;13.60;1.00
31991;DHT22;18508;49.386;8.370;2023-08-07T01:50:36;13.60;1.00
31991;DHT22;18508;49.386;8.370;2023-08-07T01:53:05;13.60;1.00
31991;DHT22;18508;49.386;8.370;2023-08-07T01:55:35;13.60;1.00
31991;DHT22;18508;49.386;8.370;2023-08-07T01:58:03;13.60;1.00
31991;DHT22;18508;49.386;8.370;2023-08-07T02:00:32;13.60;1.00
31991;DHT22;18508;49.386;8.370;2023-08-07T02:03:01;13.60;1.00
31991;DHT22;18508;49.386;8.370;2023-08-07T02:05:29;13.60;1.00
31991;DHT22;18508;49.386;8.370;2023-08-07T02:07:57;13.60;1.00
31991;DHT22;18508;49.386;8.370;2023-08-07T02:10:25;13.60;1.00
31991;DHT22;18508;49.386;8.370;2023-08-07T02:12:57;13.50;1.00
31991;DHT22;18508;49.386;8.370;2023-08-07T02:15:26;13.60;1.00
31991;DHT22;18508;49.386;8.370;2023-08-07T02:17:54;13.50;1.00
31991;DHT22;18508;49.386;8.370;2023-08-07T02:20:23;13.60;1.00
31991;DHT22;18508;49.386;8.370;2023-08-07T02:22:51;13.60;1.00
31991;DHT22;18508;49.386;8.370;2023-08-07T02:25:19;13.60;1.00
31991;DHT22;18508;49.386;8.370;2023-08-07T02:27:47;13.60;1.00
31991;DHT22;18508;49.386;8.370;2023-08-07T02:30:17;13.50;1.00
31991;DHT22;18508;49.386;8.370;2023-08-07T02:32:46;13.50;1.00
31991;DHT22;18508;49.386;8.370;2023-08-07T02:35:15;13.50;1.00
31991;DHT22;18508;49.386;8.370;2023-08-07T02:37:43;13.50;1.00
31991;DHT22;18508;49.386;8.370;2023-08-07T02:40:11;13.70;1.00
31991;DHT22;18508;49.386;8.370;2023-08-07T02:42:42;13.50;1.00
31991;DHT22;18508;49.386;8.370;2023-08-07T02:45:14;13.60;1.00
31991;DHT22;18508;49.386;8.370;2023-08-07T02:47:44;13.50;1.00
31991;DHT22;18508;49.386;8.370;2023-08-07T02:50:12;13.50;1.00
31991;DHT22;18508;49.386;8.370;2023-08-07T02:52:41;13.60;1.00
31991;DHT22;18508;49.386;8.370;2023-08-07T02:55:11;13.60;1.00
31991;DHT22;18508;49.386;8.370;2023-08-07T02:57:40;13.60;1.00
31991;DHT22;18508;49.386;8.370;2023-08-07T03:00:09;13.50;1.00
31991;DHT22;18508;49.386;8.370;2023-08-07T03:02:38;13.60;1.00
31991;DHT22;18508;49.386;8.370;2023-08-07T03:05:08;13.60;1.00
31991;DHT22;18508;49.386;8.370;2023-08-07T03:07:36;13.50;1.00
31991;DHT22;18508;49.386;8.370;2023-08-07T03:10:05;13.50;1.00
31991;DHT22;18508;49.386;8.370;2023-08-07T03:12:34;13.50;1.00
31991;DHT22;18508;49.386;8.370;2023-08-07T03:15:06;13.50;1.00
31991;DHT22;18508;49.386;8.370;2023-08-07T03:17:36;13.50;1.00
31991;DHT22;18508;49.386;8.370;2023-08-07T03:20:08;13.50;1.00
31991;DHT22;18508;49.386;8.370;2023-08-07T03:22:37;13.50;1.00
31991;DHT22;18508;49.386;8.370;2023-08-07T03:25:06;13.50;1.00
31991;DHT22;18508;49.386;8.370;2023-08-07T03:27:34;13.50;1.00
31991;DHT22;18508;49.386;8.370;2023-08-07T03:30:03;13.50;1.00
31991;DHT22;18508;49.386;8.370;2023-08-07T03:32:31;13.50;1.00
31991;DHT22;18508;49.386;8.370;2023-08-07T03:34:59;13.50;1.00
31991;DHT22;18508;49.386;8.370;2023-08-07T03:37:29;13.50;1.00
31991;DHT22;18508;49.386;8.370;2023-08-07T03:39:57;13.50;1.00
31991;DHT22;18508;49.386;8.370;2023-08-07T03:42:25;13.50;1.00
31991;DHT22;18508;49.386;8.370;2023-08-07T03:44:53;13.50;1.00
31991;DHT22;18508;49.386;8.370;2023-08-07T03:47:23;13.50;1.00
31991;DHT22;18508;49.386;8.370;2023-08-07T03:49:51;13.50;1.00
31991;DHT22;18508;49.386;8.370;2023-08-07T03:52:20;13.60;1.00
31991;DHT22;18508;49.386;8.370;2023-08-07T03:54:50;13.60;1.00
31991;DHT22;18508;49.386;8.370;2023-08-07T03:57:18;13.60;1.00
31991;DHT22;18508;49.386;8.370;2023-08-07T03:59:46;13.40;1.00
31991;DHT22;18508;49.386;8.370;2023-08-07T04:02:14;13.60;1.00
31991;DHT22;18508;49.386;8.370;2023-08-07T04:04:43;13.50;1.00
31991;DHT22;18508;49.386;8.370;2023-08-07T04:07:11;13.40;1.00
31991;DHT22;18508;49.386;8.370;2023-08-07T04:09:39;13.40;1.00
31991;DHT22;18508;49.386;8.370;2023-08-07T04:12:09;13.40;1.00
31991;DHT22;18508;49.386;8.370;2023-08-07T04:17:06;13.40;7.10
31991;DHT22;18508;49.386;8.370;2023-08-07T04:19:34;13.30;1.00
31991;DHT22;18508;49.386;8.370;2023-08-07T04:22:03;13.30;1.00
31991;DHT22;18508;49.386;8.370;2023-08-07T04:24:32;13.30;1.00
31991;DHT22;18508;49.386;8.370;2023-08-07T04:27:00;13.20;22.10
31991;DHT22;18508;49.386;8.370;2023-08-07T04:29:31;13.20;1.00
31991;DHT22;18508;49.386;8.370;2023-08-07T04:32:00;13.20;1.00
31991;DHT22;18508;49.386;8.370;2023-08-07T04:34:28;13.30;1.00
31991;DHT22;18508;49.386;8.370;2023-08-07T04:36:57;13.30;1.00
31991;DHT22;18508;49.386;8.370;2023-08-07T04:41:54;13.30;1.00
31991;DHT22;18508;49.386;8.370;2023-08-07T04:44:22;13.30;1.00
31991;DHT22;18508;49.386;8.370;2023-08-07T04:46:52;13.30;1.00
31991;DHT22;18508;49.386;8.370;2023-08-07T04:49:23;13.30;1.00
31991;DHT22;18508;49.386;8.370;2023-08-07T04:54:21;13.40;1.00
31991;DHT22;18508;49.386;8.370;2023-08-07T04:56:49;13.40;1.00
31991;DHT22;18508;49.386;8.370;2023-08-07T04:59:18;13.50;1.00
31991;DHT22;18508;49.386;8.370;2023-08-07T05:01:46;13.40;1.00
31991;DHT22;18508;49.386;8.370;2023-08-07T05:04:16;13.50;1.00
31991;DHT22;18508;49.386;8.370;2023-08-07T05:06:44;13.50;1.00
31991;DHT22;18508;49.386;8.370;2023-08-07T05:09:12;13.60;1.00
31991;DHT22;18508;49.386;8.370;2023-08-07T05:11:41;13.60;1.00
31991;DHT22;18508;49.386;8.370;2023-08-07T05:14:09;13.40;1.00
31991;DHT22;18508;49.386;8.370;2023-08-07T05:16:37;13.60;1.00
31991;DHT22;18508;49.386;8.370;2023-08-07T05:19:06;13.70;1.00
31991;DHT22;18508;49.386;8.370;2023-08-07T05:21:36;13.70;1.00
31991;DHT22;18508;49.386;8.370;2023-08-07T05:24:05;13.70;1.00
31991;DHT22;18508;49.386;8.370;2023-08-07T05:26:33;13.80;1.00
31991;DHT22;18508;49.386;8.370;2023-08-07T05:29:01;13.80;1.00
31991;DHT22;18508;49.386;8.370;2023-08-07T05:31:31;14.00;1.00
31991;DHT22;18508;49.386;8.370;2023-08-07T05:33:59;13.80;1.00
31991;DHT22;18508;49.386;8.370;2023-08-07T05:36:27;13.80;1.00
31991;DHT22;18508;49.386;8.370;2023-08-07T05:38:58;13.90;1.00
31991;DHT22;18508;49.386;8.370;2023-08-07T05:43:57;13.90;1.00
31991;DHT22;18508;49.386;8.370;2023-08-07T05:46:25;13.90;1.00
31991;DHT22;18508;49.386;8.370;2023-08-07T05:48:53;13.90;1.00
31991;DHT22;18508;49.386;8.370;2023-08-07T05:51:21;14.00;1.00
31991;DHT22;18508;49.386;8.370;2023-08-07T05:53:50;14.00;1.00
31991;DHT22;18508;49.386;8.370;2023-08-07T05:56:20;14.00;1.00
31991;DHT22;18508;49.386;8.370;2023-08-07T05:58:48;14.10;1.00
31991;DHT22;18508;49.386;8.370;2023-08-07T06:01:17;14.10;1.00
31991;DHT22;18508;49.386;8.370;2023-08-07T06:06:14;14.10;1.00
31991;DHT22;18508;49.386;8.370;2023-08-07T06:08:42;14.20;1.00
31991;DHT22;18508;49.386;8.370;2023-08-07T06:11:11;14.20;1.00
31991;DHT22;18508;49.386;8.370;2023-08-07T06:13:41;14.30;1.00
31991;DHT22;18508;49.386;8.370;2023-08-07T06:16:09;14.20;1.00
31991;DHT22;18508;49.386;8.370;2023-08-07T06:18:38;14.30;1.00
31991;DHT22;18508;49.386;8.370;2023-08-07T06:21:08;14.30;1.00
31991;DHT22;18508;49.386;8.370;2023-08-07T06:23:37;14.30;1.00
31991;DHT22;18508;49.386;8.370;2023-08-07T06:26:05;14.20;1.00
31991;DHT22;18508;49.386;8.370;2023-08-07T06:28:35;14.20;1.00
31991;DHT22;18508;49.386;8.370;2023-08-07T06:31:07;14.30;1.00
31991;DHT22;18508;49.386;8.370;2023-08-07T06:33:35;14.00;1.00
31991;DHT22;18508;49.386;8.370;2023-08-07T06:36:05;14.30;1.00
31991;DHT22;18508;49.386;8.370;2023-08-07T06:38:33;14.30;1.00
31991;DHT22;18508;49.386;8.370;2023-08-07T06:41:01;14.40;1.00
31991;DHT22;18508;49.386;8.370;2023-08-07T06:43:30;14.30;1.00
31991;DHT22;18508;49.386;8.370;2023-08-07T06:45:59;14.50;1.00
31991;DHT22;18508;49.386;8.370;2023-08-07T06:48:28;14.50;1.00
31991;DHT22;18508;49.386;8.370;2023-08-07T06:50:57;14.50;1.00
31991;DHT22;18508;49.386;8.370;2023-08-07T06:53:25;14.60;1.00
31991;DHT22;18508;49.386;8.370;2023-08-07T06:55:53;14.60;1.00
31991;DHT22;18508;49.386;8.370;2023-08-07T06:58:23;14.60;1.00
31991;DHT22;18508;49.386;8.370;2023-08-07T07:03:20;14.50;1.00
31991;DHT22;18508;49.386;8.370;2023-08-07T07:05:50;14.50;1.00
31991;DHT22;18508;49.386;8.370;2023-08-07T07:08:20;14.50;1.00
31991;DHT22;18508;49.386;8.370;2023-08-07T07:10:50;14.50;1.00
31991;DHT22;18508;49.386;8.370;2023-08-07T07:13:18;14.00;1.00
31991;DHT22;18508;49.386;8.370;2023-08-07T07:15:46;14.20;1.00
31991;DHT22;18508;49.386;8.370;2023-08-07T07:18:20;14.50;1.00
31991;DHT22;18508;49.386;8.370;2023-08-07T07:20:56;14.50;1.00
31991;DHT22;18508;49.386;8.370;2023-08-07T07:23:25;14.50;1.00
31991;DHT22;18508;49.386;8.370;2023-08-07T07:25:53;14.50;1.00
31991;DHT22;18508;49.386;8.370;2023-08-07T07:28:21;14.50;1.00
31991;DHT22;18508;49.386;8.370;2023-08-07T07:30:50;14.60;1.00
31991;DHT22;18508;49.386;8.370;2023-08-07T07:33:18;14.50;1.00
31991;DHT22;18508;49.386;8.370;2023-08-07T07:38:17;14.60;1.00
31991;DHT22;18508;49.386;8.370;2023-08-07T07:40:45;14.80;1.00
31991;DHT22;18508;49.386;8.370;2023-08-07T07:43:14;14.60;1.00
31991;DHT22;18508;49.386;8.370;2023-08-07T07:45:43;14.70;1.00
31991;DHT22;18508;49.386;8.370;2023-08-07T07:48:12;14.80;1.00
31991;DHT22;18508;49.386;8.370;2023-08-07T07:50:41;14.80;1.00
31991;DHT22;18508;49.386;8.370;2023-08-07T07:53:09;14.90;1.00
31991;DHT22;18508;49.386;8.370;2023-08-07T07:55:39;15.00;1.00
31991;DHT22;18508;49.386;8.370;2023-08-07T07:58:07;15.10;99.90
31991;DHT22;18508;49.386;8.370;2023-08-07T08:05:33;15.60;99.90
31991;DHT22;18508;49.386;8.370;2023-08-07T08:08:01;15.70;99.90
31991;DHT22;18508;49.386;8.370;2023-08-07T08:10:30;16.10;99.90
31991;DHT22;18508;49.386;8.370;2023-08-07T08:13:00;15.80;99.90
31991;DHT22;18508;49.386;8.370;2023-08-07T08:15:30;15.80;99.90
31991;DHT22;18508;49.386;8.370;2023-08-07T08:17:59;15.30;99.90
31991;DHT22;18508;49.386;8.370;2023-08-07T08:20:27;15.70;99.90
31991;DHT22;18508;49.386;8.370;2023-08-07T08:22:58;15.70;99.90
31991;DHT22;18508;49.386;8.370;2023-08-07T08:25:26;15.70;99.90
31991;DHT22;18508;49.386;8.370;2023-08-07T08:30:24;15.70;99.90
31991;DHT22;18508;49.386;8.370;2023-08-07T08:32:53;15.80;99.90
31991;DHT22;18508;49.386;8.370;2023-08-07T08:35:21;16.00;99.90
31991;DHT22;18508;49.386;8.370;2023-08-07T08:37:50;16.00;99.90
31991;DHT22;18508;49.386;8.370;2023-08-07T08:40:18;16.20;99.90
31991;DHT22;18508;49.386;8.370;2023-08-07T08:42:46;16.30;99.90
31991;DHT22;18508;49.386;8.370;2023-08-07T08:45:15;15.90;99.90
31991;DHT22;18508;49.386;8.370;2023-08-07T08:47:46;16.50;99.90
31991;DHT22;18508;49.386;8.370;2023-08-07T08:50:17;16.50;99.90
31991;DHT22;18508;49.386;8.370;2023-08-07T08:52:45;16.30;99.90
31991;DHT22;18508;49.386;8.370;2023-08-07T08:55:14;16.30;99.90
31991;DHT22;18508;49.386;8.370;2023-08-07T08:57:44;16.10;99.90
31991;DHT22;18508;49.386;8.370;2023-08-07T09:00:14;16.10;99.90
31991;DHT22;18508;49.386;8.370;2023-08-07T09:02:50;16.10;99.90
31991;DHT22;18508;49.386;8.370;2023-08-07T09:05:20;16.10;99.90
31991;DHT22;18508;49.386;8.370;2023-08-07T09:07:48;16.10;99.90
31991;DHT22;18508;49.386;8.370;2023-08-07T09:10:17;16.20;99.90
31991;DHT22;18508;49.386;8.370;2023-08-07T09:13:00;16.10;99.90
31991;DHT22;18508;49.386;8.370;2023-08-07T09:15:31;16.10;99.90
31991;DHT22;18508;49.386;8.370;2023-08-07T09:18:02;16.10;99.90
31991;DHT22;18508;49.386;8.370;2023-08-07T09:20:35;16.20;99.90
31991;DHT22;18508;49.386;8.370;2023-08-07T09:25:34;16.10;99.90
31991;DHT22;18508;49.386;8.370;2023-08-07T09:28:03;16.10;99.90
31991;DHT22;18508;49.386;8.370;2023-08-07T09:30:34;16.00;1.00
31991;DHT22;18508;49.386;8.370;2023-08-07T09:33:05;16.00;99.90
31991;DHT22;18508;49.386;8.370;2023-08-07T09:35:34;16.00;1.00
31991;DHT22;18508;49.386;8.370;2023-08-07T09:38:04;16.00;1.00
31991;DHT22;18508;49.386;8.370;2023-08-07T09:40:33;16.00;1.00
31991;DHT22;18508;49.386;8.370;2023-08-07T09:43:01;16.20;1.00
31991;DHT22;18508;49.386;8.370;2023-08-07T09:48:02;15.90;1.00
31991;DHT22;18508;49.386;8.370;2023-08-07T09:50:32;15.70;1.00
31991;DHT22;18508;49.386;8.370;2023-08-07T09:53:01;15.70;1.00
31991;DHT22;18508;49.386;8.370;2023-08-07T09:55:29;15.50;1.00
31991;DHT22;18508;49.386;8.370;2023-08-07T09:58:00;15.30;1.00
31991;DHT22;18508;49.386;8.370;2023-08-07T10:00:33;15.20;1.00
31991;DHT22;18508;49.386;8.370;2023-08-07T10:03:02;15.10;1.00
31991;DHT22;18508;49.386;8.370;2023-08-07T10:05:32;15.00;1.00
31991;DHT22;18508;49.386;8.370;2023-08-07T10:08:01;14.90;10.90
31991;DHT22;18508;49.386;8.370;2023-08-07T10:10:31;14.90;60.10
31991;DHT22;18508;49.386;8.370;2023-08-07T10:13:00;14.90;1.00
31991;DHT22;18508;49.386;8.370;2023-08-07T10:15:32;14.90;99.90
31991;DHT22;18508;49.386;8.370;2023-08-07T10:18:01;15.00;99.90
31991;DHT22;18508;49.386;8.370;2023-08-07T10:20:33;15.00;99.90
31991;DHT22;18508;49.386;8.370;2023-08-07T10:23:06;15.20;99.90
31991;DHT22;18508;49.386;8.370;2023-08-07T10:25:37;15.50;99.90
31991;DHT22;18508;49.386;8.370;2023-08-07T10:28:10;15.40;99.90
31991;DHT22;18508;49.386;8.370;2023-08-07T10:30:41;15.50;99.90
31991;DHT22;18508;49.386;8.370;2023-08-07T10:33:11;15.60;99.90
31991;DHT22;18508;49.386;8.370;2023-08-07T10:35:47;15.80;99.90
31991;DHT22;18508;49.386;8.370;2023-08-07T10:38:19;15.90;1.00
31991;DHT22;18508;49.386;8.370;2023-08-07T10:41:01;15.70;1.00
31991;DHT22;18508;49.386;8.370;2023-08-07T10:43:30;15.80;1.00
31991;DHT22;18508;49.386;8.370;2023-08-07T10:46:05;15.80;1.00
31991;DHT22;18508;49.386;8.370;2023-08-07T10:48:41;15.90;1.00
31991;DHT22;18508;49.386;8.370;2023-08-07T10:51:14;16.00;1.00
31991;DHT22;18508;49.386;8.370;2023-08-07T10:53:43;15.50;1.00
31991;DHT22;18508;49.386;8.370;2023-08-07T10:56:16;16.00;1.00
31991;DHT22;18508;49.386;8.370;2023-08-07T10:58:49;16.10;1.00
31991;DHT22;18508;49.386;8.370;2023-08-07T11:01:20;16.10;1.00
31991;DHT22;18508;49.386;8.370;2023-08-07T11:03:51;16.20;99.90
31991;DHT22;18508;49.386;8.370;2023-08-07T11:06:23;16.30;1.00
31991;DHT22;18508;49.386;8.370;2023-08-07T11:08:54;16.30;85.20
31991;DHT22;18508;49.386;8.370;2023-08-07T11:18:48;16.50;99.90
31991;DHT22;18508;49.386;8.370;2023-08-07T11:21:17;16.50;99.00
31991;DHT22;18508;49.386;8.370;2023-08-07T11:23:48;16.40;63.60
31991;DHT22;18508;49.386;8.370;2023-08-07T11:26:17;16.30;1.00
31991;DHT22;18508;49.386;8.370;2023-08-07T11:31:17;16.20;99.90
31991;DHT22;18508;49.386;8.370;2023-08-07T11:36:14;16.30;99.90
31991;DHT22;18508;49.386;8.370;2023-08-07T11:38:43;16.30;99.90
31991;DHT22;18508;49.386;8.370;2023-08-07T11:41:16;16.30;99.90
31991;DHT22;18508;49.386;8.370;2023-08-07T11:43:45;16.40;61.60
31991;DHT22;18508;49.386;8.370;2023-08-07T11:46:14;16.40;99.90
31991;DHT22;18508;49.386;8.370;2023-08-07T11:48:44;16.50;92.20
31991;DHT22;18508;49.386;8.370;2023-08-07T11:51:13;16.70;99.90
31991;DHT22;18508;49.386;8.370;2023-08-07T11:53:41;16.80;11.80
31991;DHT22;18508;49.386;8.370;2023-08-07T11:56:14;17.00;39.60
31991;DHT22;18508;49.386;8.370;2023-08-07T11:58:44;17.00;1.00
31991;DHT22;18508;49.386;8.370;2023-08-07T12:01:15;17.40;1.00
31991;DHT22;18508;49.386;8.370;2023-08-07T12:03:53;17.20;1.00
31991;DHT22;18508;49.386;8.370;2023-08-07T12:06:23;17.50;1.00
31991;DHT22;18508;49.386;8.370;2023-08-07T12:08:54;17.50;1.00
31991;DHT22;18508;49.386;8.370;2023-08-07T12:11:25;17.50;1.00
31991;DHT22;18508;49.386;8.370;2023-08-07T12:13:54;17.60;1.00
31991;DHT22;18508;49.386;8.370;2023-08-07T12:16:22;17.70;1.00
31991;DHT22;18508;49.386;8.370;2023-08-07T12:18:51;18.10;1.00
31991;DHT22;18508;49.386;8.370;2023-08-07T12:21:22;18.40;1.00
31991;DHT22;18508;49.386;8.370;2023-08-07T12:23:54;18.30;1.00
31991;DHT22;18508;49.386;8.370;2023-08-07T12:28:53;19.20;1.00
31991;DHT22;18508;49.386;8.370;2023-08-07T12:31:24;19.60;1.00
31991;DHT22;18508;49.386;8.370;2023-08-07T12:38:50;20.20;99.90
31991;DHT22;18508;49.386;8.370;2023-08-07T12:41:18;20.00;32.00
31991;DHT22;18508;49.386;8.370;2023-08-07T12:43:49;20.00;99.90
31991;DHT22;18508;49.386;8.370;2023-08-07T12:46:19;19.70;99.90
31991;DHT22;18508;49.386;8.370;2023-08-07T12:48:52;19.50;99.90
31991;DHT22;18508;49.386;8.370;2023-08-07T12:51:20;19.40;99.90
31991;DHT22;18508;49.386;8.370;2023-08-07T13:01:17;19.40;47.60
31991;DHT22;18508;49.386;8.370;2023-08-07T13:03:46;19.30;87.10
31991;DHT22;18508;49.386;8.370;2023-08-07T13:06:15;19.30;1.00
31991;DHT22;18508;49.386;8.370;2023-08-07T13:08:43;19.30;42.70
31991;DHT22;18508;49.386;8.370;2023-08-07T13:11:13;19.30;18.20
31991;DHT22;18508;49.386;8.370;2023-08-07T13:13:41;19.50;55.30
31991;DHT22;18508;49.386;8.370;2023-08-07T13:18:38;19.90;99.90
31991;DHT22;18508;49.386;8.370;2023-08-07T13:21:08;20.20;99.90
31991;DHT22;18508;49.386;8.370;2023-08-07T13:23:37;20.60;99.90
31991;DHT22;18508;49.386;8.370;2023-08-07T13:26:05;20.50;99.90
31991;DHT22;18508;49.386;8.370;2023-08-07T13:28:34;20.30;99.90
31991;DHT22;18508;49.386;8.370;2023-08-07T13:31:02;20.30;99.90
31991;DHT22;18508;49.386;8.370;2023-08-07T13:33:30;20.30;75.80
31991;DHT22;18508;49.386;8.370;2023-08-07T13:35:59;20.20;99.90
31991;DHT22;18508;49.386;8.370;2023-08-07T13:38:28;21.10;99.90
31991;DHT22;18508;49.386;8.370;2023-08-07T13:40:57;21.00;99.90
31991;DHT22;18508;49.386;8.370;2023-08-07T13:43:25;21.60;99.90
31991;DHT22;18508;49.386;8.370;2023-08-07T13:45:53;22.00;99.90
31991;DHT22;18508;49.386;8.370;2023-08-07T13:48:21;22.40;99.90
31991;DHT22;18508;49.386;8.370;2023-08-07T13:50:53;22.70;99.90
31991;DHT22;18508;49.386;8.370;2023-08-07T13:53:22;23.10;99.90
31991;DHT22;18508;49.386;8.370;2023-08-07T13:55:58;23.20;99.90
31991;DHT22;18508;49.386;8.370;2023-08-07T13:58:28;22.70;99.90
31991;DHT22;18508;49.386;8.370;2023-08-07T14:00:56;22.30;99.90
31991;DHT22;18508;49.386;8.370;2023-08-07T14:03:25;20.90;99.90
31991;DHT22;18508;49.386;8.370;2023-08-07T14:05:53;21.40;99.90
31991;DHT22;18508;49.386;8.370;2023-08-07T14:08:22;21.50;99.90
31991;DHT22;18508;49.386;8.370;2023-08-07T14:10:50;21.50;99.90
31991;DHT22;18508;49.386;8.370;2023-08-07T14:13:21;22.60;99.90
31991;DHT22;18508;49.386;8.370;2023-08-07T14:15:49;23.00;99.90
31991;DHT22;18508;49.386;8.370;2023-08-07T14:18:20;23.00;99.90
31991;DHT22;18508;49.386;8.370;2023-08-07T14:20:49;22.60;99.90
31991;DHT22;18508;49.386;8.370;2023-08-07T14:23:29;22.50;99.90
31991;DHT22;18508;49.386;8.370;2023-08-07T14:26:00;23.00;99.90
31991;DHT22;18508;49.386;8.370;2023-08-07T14:28:30;23.00;99.90
31991;DHT22;18508;49.386;8.370;2023-08-07T14:30:59;22.50;99.90
31991;DHT22;18508;49.386;8.370;2023-08-07T14:33:28;22.20;99.90
31991;DHT22;18508;49.386;8.370;2023-08-07T14:35:57;22.80;99.90
31991;DHT22;18508;49.386;8.370;2023-08-07T14:38:26;23.30;99.90
31991;DHT22;18508;49.386;8.370;2023-08-07T14:40:55;24.20;99.90
31991;DHT22;18508;49.386;8.370;2023-08-07T14:43:30;24.40;99.90
31991;DHT22;18508;49.386;8.370;2023-08-07T14:45:58;24.80;99.90
31991;DHT22;18508;49.386;8.370;2023-08-07T14:48:27;25.40;99.90
31991;DHT22;18508;49.386;8.370;2023-08-07T14:50:56;26.00;99.90
31991;DHT22;18508;49.386;8.370;2023-08-07T14:53:24;26.40;99.90
31991;DHT22;18508;49.386;8.370;2023-08-07T14:55:54;26.30;99.90
31991;DHT22;18508;49.386;8.370;2023-08-07T14:58:22;26.30;99.90
31991;DHT22;18508;49.386;8.370;2023-08-07T15:00:55;27.00;99.90
31991;DHT22;18508;49.386;8.370;2023-08-07T15:03:23;25.90;99.90
31991;DHT22;18508;49.386;8.370;2023-08-07T15:05:51;25.30;99.90
31991;DHT22;18508;49.386;8.370;2023-08-07T15:08:20;25.40;99.90
31991;DHT22;18508;49.386;8.370;2023-08-07T15:10:50;25.70;99.90
31991;DHT22;18508;49.386;8.370;2023-08-07T15:13:19;26.30;99.90
31991;DHT22;18508;49.386;8.370;2023-08-07T15:15:47;26.00;99.90
31991;DHT22;18508;49.386;8.370;2023-08-07T15:18:19;25.50;99.90
31991;DHT22;18508;49.386;8.370;2023-08-07T15:20:49;26.00;99.90
31991;DHT22;18508;49.386;8.370;2023-08-07T15:23:19;26.20;99.90
31991;DHT22;18508;49.386;8.370;2023-08-07T15:25:47;26.00;99.90
31991;DHT22;18508;49.386;8.370;2023-08-07T15:28:17;24.90;99.90
31991;DHT22;18508;49.386;8.370;2023-08-07T15:30:48;24.60;99.90
31991;DHT22;18508;49.386;8.370;2023-08-07T15:33:19;24.20;99.90
31991;DHT22;18508;49.386;8.370;2023-08-07T15:35:53;24.40;99.90
31991;DHT22;18508;49.386;8.370;2023-08-07T15:38:25;24.60;99.90
31991;DHT22;18508;49.386;8.370;2023-08-07T15:40:55;25.10;99.90
31991;DHT22;18508;49.386;8.370;2023-08-07T15:43:24;24.40;99.90
31991;DHT22;18508;49.386;8.370;2023-08-07T15:45:52;24.10;99.90
31991;DHT22;18508;49.386;8.370;2023-08-07T15:48:26;23.70;99.90
31991;DHT22;18508;49.386;8.370;2023-08-07T15:50:55;23.20;99.90
31991;DHT22;18508;49.386;8.370;2023-08-07T15:53:23;23.30;99.90
31991;DHT22;18508;49.386;8.370;2023-08-07T15:55:52;24.60;99.90
31991;DHT22;18508;49.386;8.370;2023-08-07T15:58:20;25.00;99.90
31991;DHT22;18508;49.386;8.370;2023-08-07T16:00:52;24.50;99.90
31991;DHT22;18508;49.386;8.370;2023-08-07T16:03:20;24.00;99.90
31991;DHT22;18508;49.386;8.370;2023-08-07T16:05:51;24.20;99.90
31991;DHT22;18508;49.386;8.370;2023-08-07T16:08:20;24.30;99.90
31991;DHT22;18508;49.386;8.370;2023-08-07T16:10:50;24.00;99.90
31991;DHT22;18508;49.386;8.370;2023-08-07T16:13:19;24.20;99.90
31991;DHT22;18508;49.386;8.370;2023-08-07T16:15:49;24.00;99.90
31991;DHT22;18508;49.386;8.370;2023-08-07T16:18:21;24.20;99.90
31991;DHT22;18508;49.386;8.370;2023-08-07T16:20:51;23.90;99.90
31991;DHT22;18508;49.386;8.370;2023-08-07T16:23:20;23.30;99.90
31991;DHT22;18508;49.386;8.370;2023-08-07T16:25:48;22.90;99.90
31991;DHT22;18508;49.386;8.370;2023-08-07T16:28:16;23.30;99.90
31991;DHT22;18508;49.386;8.370;2023-08-07T16:30:46;24.40;99.90
31991;DHT22;18508;49.386;8.370;2023-08-07T16:33:16;25.10;99.90
31991;DHT22;18508;49.386;8.370;2023-08-07T16:35:45;25.70;99.90
31991;DHT22;18508;49.386;8.370;2023-08-07T16:38:17;25.10;99.90
31991;DHT22;18508;49.386;8.370;2023-08-07T16:40:45;24.50;99.90
31991;DHT22;18508;49.386;8.370;2023-08-07T16:43:14;23.50;99.90
31991;DHT22;18508;49.386;8.370;2023-08-07T16:45:44;23.10;99.90
31991;DHT22;18508;49.386;8.370;2023-08-07T16:48:14;23.40;99.90
31991;DHT22;18508;49.386;8.370;2023-08-07T16:50:44;23.90;99.90
31991;DHT22;18508;49.386;8.370;2023-08-07T16:53:34;24.50;99.90
31991;DHT22;18508;49.386;8.370;2023-08-07T16:56:03;26.30;99.90
31991;DHT22;18508;49.386;8.370;2023-08-07T16:58:35;26.00;99.90
31991;DHT22;18508;49.386;8.370;2023-08-07T17:01:05;26.60;99.90
31991;DHT22;18508;49.386;8.370;2023-08-07T17:03:39;26.20;99.90